sensor_id;sensor_type;location;lat;lon;timestamp;P1;durP1;ratioP1;P2;durP2;ratioP2
63346;SDS011;49472;49.880;8.650;2023-03-23T00:00:54;10.70;;;9.80;;
63346;SDS011;49472;49.880;8.650;2023-03-23T00:03:20;10.63;;;10.10;;
63346;SDS011;49472;49.880;8.650;2023-03-23T00:05:46;11.70;;;11.00;;
63346;SDS011;49472;49.880;8.650;2023-03-23T00:08:17;10.77;;;9.70;;
63346;SDS011;49472;49.880;8.650;2023-03-23T00:10:47;11.87;;;10.87;;
63346;SDS011;49472;49.880;8.650;2023-03-23T00:13:14;11.87;;;10.87;;
63346;SDS011;49472;49.880;8.650;2023-03-23T00:15:44;11.23;;;10.43;;
63346;SDS011;49472;49.880;8.650;2023-03-23T00:18:09;11.43;;;10.47;;
63346;SDS011;49472;49.880;8.650;2023-03-23T00:20:50;11.10;;;10.40;;
63346;SDS011;49472;49.880;8.650;2023-03-23T00:23:20;10.63;;;10.10;;
63346;SDS011;49472;49.880;8.650;2023-03-23T00:25:49;11.23;;;10.43;;
63346;SDS011;49472;49.880;8.650;2023-03-23T00:28:18;10.87;;;9.97;;
63346;SDS011;49472;49.880;8.650;2023-03-23T00:30:49;10.67;;;9.97;;
63346;SDS011;49472;49.880;8.650;2023-03-23T00:33:21;10.37;;;9.77;;
63346;SDS011;49472;49.880;8.650;2023-03-23T00:35:47;11.63;;;10.83;;
63346;SDS011;49472;49.880;8.650;2023-03-23T00:38:13;10.80;;;10.20;;
63346;SDS011;49472;49.880;8.650;2023-03-23T00:40:39;11.23;;;10.17;;
63346;SDS011;49472;49.880;8.650;2023-03-23T00:43:04;11.13;;;10.40;;
63346;SDS011;49472;49.880;8.650;2023-03-23T00:45:29;11.30;;;10.40;;
63346;SDS011;49472;49.880;8.650;2023-03-23T00:47:55;11.13;;;10.17;;
63346;SDS011;49472;49.880;8.650;2023-03-23T00:50:21;11.07;;;10.40;;
63346;SDS011;49472;49.880;8.650;2023-03-23T00:52:47;11.30;;;10.60;;
63346;SDS011;49472;49.880;8.650;2023-03-23T00:55:14;11.20;;;10.40;;
63346;SDS011;49472;49.880;8.650;2023-03-23T00:57:39;10.77;;;10.17;;
63346;SDS011;49472;49.880;8.650;2023-03-23T01:00:05;10.50;;;9.90;;
63346;SDS011;49472;49.880;8.650;2023-03-23T01:02:35;10.40;;;9.80;;
63346;SDS011;49472;49.880;8.650;2023-03-23T01:05:01;10.50;;;10.00;;
63346;SDS011;49472;49.880;8.650;2023-03-23T01:07:28;10.97;;;10.10;;
63346;SDS011;49472;49.880;8.650;2023-03-23T01:09:56;11.33;;;10.60;;
63346;SDS011;49472;49.880;8.650;2023-03-23T01:12:22;10.90;;;10.20;;
63346;SDS011;49472;49.880;8.650;2023-03-23T01:14:49;11.20;;;10.30;;
63346;SDS011;49472;49.880;8.650;2023-03-23T01:17:15;11.03;;;10.30;;
63346;SDS011;49472;49.880;8.650;2023-03-23T01:19:40;10.87;;;10.07;;
63346;SDS011;49472;49.880;8.650;2023-03-23T01:22:07;13.30;;;11.00;;
63346;SDS011;49472;49.880;8.650;2023-03-23T01:24:32;10.47;;;9.97;;
63346;SDS011;49472;49.880;8.650;2023-03-23T01:26:57;10.97;;;10.33;;
63346;SDS011;49472;49.880;8.650;2023-03-23T01:29:26;11.63;;;10.73;;
63346;SDS011;49472;49.880;8.650;2023-03-23T01:31:52;11.20;;;10.17;;
63346;SDS011;49472;49.880;8.650;2023-03-23T01:34:17;10.53;;;9.93;;
63346;SDS011;49472;49.880;8.650;2023-03-23T01:36:42;10.53;;;9.70;;
63346;SDS011;49472;49.880;8.650;2023-03-23T01:39:07;11.23;;;10.23;;
63346;SDS011;49472;49.880;8.650;2023-03-23T01:41:33;10.40;;;9.80;;
63346;SDS011;49472;49.880;8.650;2023-03-23T01:44:03;11.07;;;10.03;;
63346;SDS011;49472;49.880;8.650;2023-03-23T01:46:33;10.33;;;9.80;;
63346;SDS011;49472;49.880;8.650;2023-03-23T01:49:06;11.33;;;10.53;;
63346;SDS011;49472;49.880;8.650;2023-03-23T01:51:36;10.60;;;10.00;;
63346;SDS011;49472;49.880;8.650;2023-03-23T01:54:06;11.37;;;10.57;;
63346;SDS011;49472;49.880;8.650;2023-03-23T01:56:39;11.47;;;10.57;;
63346;SDS011;49472;49.880;8.650;2023-03-23T01:59:10;10.43;;;9.83;;
63346;SDS011;49472;49.880;8.650;2023-03-23T02:01:36;11.07;;;10.23;;
63346;SDS011;49472;49.880;8.650;2023-03-23T02:04:05;11.47;;;10.73;;
63346;SDS011;49472;49.880;8.650;2023-03-23T02:06:31;11.10;;;10.30;;
63346;SDS011;49472;49.880;8.650;2023-03-23T02:08:56;11.00;;;10.20;;
63346;SDS011;49472;49.880;8.650;2023-03-23T02:11:22;10.77;;;10.07;;
63346;SDS011;49472;49.880;8.650;2023-03-23T02:13:48;11.20;;;10.50;;
63346;SDS011;49472;49.880;8.650;2023-03-23T02:35:53;11.23;;;10.50;;
63346;SDS011;49472;49.880;8.650;2023-03-23T02:38:31;10.80;;;10.30;;
63346;SDS011;49472;49.880;8.650;2023-03-23T02:41:01;10.83;;;10.23;;
63346;SDS011;49472;49.880;8.650;2023-03-23T02:43:30;10.60;;;10.00;;
63346;SDS011;49472;49.880;8.650;2023-03-23T02:46:01;10.80;;;10.10;;
63346;SDS011;49472;49.880;8.650;2023-03-23T02:48:31;11.50;;;10.67;;
63346;SDS011;49472;49.880;8.650;2023-03-23T02:50:58;10.80;;;10.20;;
63346;SDS011;49472;49.880;8.650;2023-03-23T02:53:26;10.80;;;10.17;;
63346;SDS011;49472;49.880;8.650;2023-03-23T02:55:54;11.37;;;10.70;;
63346;SDS011;49472;49.880;8.650;2023-03-23T02:58:22;10.37;;;9.87;;
63346;SDS011;49472;49.880;8.650;2023-03-23T03:00:50;10.57;;;9.80;;
63346;SDS011;49472;49.880;8.650;2023-03-23T03:03:17;10.63;;;9.83;;
63346;SDS011;49472;49.880;8.650;2023-03-23T03:08:37;10.70;;;10.10;;
63346;SDS011;49472;49.880;8.650;2023-03-23T03:11:18;10.90;;;10.23;;
63346;SDS011;49472;49.880;8.650;2023-03-23T03:16:46;10.20;;;9.67;;
63346;SDS011;49472;49.880;8.650;2023-03-23T03:19:26;10.60;;;10.00;;
63346;SDS011;49472;49.880;8.650;2023-03-23T03:21:54;11.10;;;10.40;;
63346;SDS011;49472;49.880;8.650;2023-03-23T03:24:23;11.10;;;10.40;;
63346;SDS011;49472;49.880;8.650;2023-03-23T03:26:51;11.60;;;10.60;;
63346;SDS011;49472;49.880;8.650;2023-03-23T03:29:20;10.70;;;10.10;;
63346;SDS011;49472;49.880;8.650;2023-03-23T03:31:48;11.03;;;10.10;;
63346;SDS011;49472;49.880;8.650;2023-03-23T03:34:17;10.80;;;10.03;;
63346;SDS011;49472;49.880;8.650;2023-03-23T03:36:43;10.10;;;9.60;;
63346;SDS011;49472;49.880;8.650;2023-03-23T03:39:11;10.03;;;9.43;;
63346;SDS011;49472;49.880;8.650;2023-03-23T03:41:39;10.73;;;9.83;;
63346;SDS011;49472;49.880;8.650;2023-03-23T03:44:05;11.13;;;10.33;;
63346;SDS011;49472;49.880;8.650;2023-03-23T03:46:31;10.20;;;9.50;;
63346;SDS011;49472;49.880;8.650;2023-03-23T03:48:58;10.37;;;9.67;;
63346;SDS011;49472;49.880;8.650;2023-03-23T03:51:27;9.80;;;9.30;;
63346;SDS011;49472;49.880;8.650;2023-03-23T03:53:54;11.10;;;10.33;;
63346;SDS011;49472;49.880;8.650;2023-03-23T03:56:20;11.10;;;10.40;;
63346;SDS011;49472;49.880;8.650;2023-03-23T03:58:50;9.70;;;9.20;;
63346;SDS011;49472;49.880;8.650;2023-03-23T04:01:16;11.60;;;10.90;;
63346;SDS011;49472;49.880;8.650;2023-03-23T04:03:43;10.67;;;10.00;;
63346;SDS011;49472;49.880;8.650;2023-03-23T04:06:09;11.40;;;10.50;;
63346;SDS011;49472;49.880;8.650;2023-03-23T04:08:35;10.80;;;10.10;;
63346;SDS011;49472;49.880;8.650;2023-03-23T04:11:02;12.43;;;10.50;;
63346;SDS011;49472;49.880;8.650;2023-03-23T04:13:29;11.10;;;10.40;;
63346;SDS011;49472;49.880;8.650;2023-03-23T04:15:54;10.50;;;9.90;;
63346;SDS011;49472;49.880;8.650;2023-03-23T04:18:19;11.07;;;10.30;;
63346;SDS011;49472;49.880;8.650;2023-03-23T04:20:46;11.33;;;10.63;;
63346;SDS011;49472;49.880;8.650;2023-03-23T04:23:14;11.00;;;10.10;;
63346;SDS011;49472;49.880;8.650;2023-03-23T04:25:44;11.60;;;10.73;;
63346;SDS011;49472;49.880;8.650;2023-03-23T04:28:14;11.33;;;10.40;;
63346;SDS011;49472;49.880;8.650;2023-03-23T04:30:44;10.97;;;10.37;;
63346;SDS011;49472;49.880;8.650;2023-03-23T04:33:13;11.00;;;10.30;;
63346;SDS011;49472;49.880;8.650;2023-03-23T04:35:39;10.73;;;10.13;;
63346;SDS011;49472;49.880;8.650;2023-03-23T04:38:06;10.47;;;9.90;;
63346;SDS011;49472;49.880;8.650;2023-03-23T04:40:32;10.20;;;9.50;;
63346;SDS011;49472;49.880;8.650;2023-03-23T04:43:01;11.00;;;10.30;;
63346;SDS011;49472;49.880;8.650;2023-03-23T04:45:30;10.47;;;9.97;;
63346;SDS011;49472;49.880;8.650;2023-03-23T04:47:55;10.43;;;9.93;;
63346;SDS011;49472;49.880;8.650;2023-03-23T04:50:22;11.17;;;10.57;;
63346;SDS011;49472;49.880;8.650;2023-03-23T04:52:49;10.80;;;10.20;;
63346;SDS011;49472;49.880;8.650;2023-03-23T04:55:16;11.43;;;10.63;;
63346;SDS011;49472;49.880;8.650;2023-03-23T04:57:42;11.33;;;10.53;;
63346;SDS011;49472;49.880;8.650;2023-03-23T05:00:09;11.00;;;10.40;;
63346;SDS011;49472;49.880;8.650;2023-03-23T05:02:40;11.63;;;10.93;;
63346;SDS011;49472;49.880;8.650;2023-03-23T05:05:09;11.57;;;10.97;;
63346;SDS011;49472;49.880;8.650;2023-03-23T05:07:40;11.93;;;11.23;;
63346;SDS011;49472;49.880;8.650;2023-03-23T05:10:06;12.30;;;11.53;;
63346;SDS011;49472;49.880;8.650;2023-03-23T05:12:34;11.37;;;10.77;;
63346;SDS011;49472;49.880;8.650;2023-03-23T05:14:59;11.80;;;11.00;;
63346;SDS011;49472;49.880;8.650;2023-03-23T05:17:25;11.93;;;11.23;;
63346;SDS011;49472;49.880;8.650;2023-03-23T05:19:51;11.87;;;11.17;;
63346;SDS011;49472;49.880;8.650;2023-03-23T05:22:17;13.50;;;11.73;;
63346;SDS011;49472;49.880;8.650;2023-03-23T05:24:42;11.87;;;11.17;;
63346;SDS011;49472;49.880;8.650;2023-03-23T05:27:11;12.00;;;11.30;;
63346;SDS011;49472;49.880;8.650;2023-03-23T05:29:36;12.17;;;11.33;;
63346;SDS011;49472;49.880;8.650;2023-03-23T05:32:05;12.10;;;11.30;;
63346;SDS011;49472;49.880;8.650;2023-03-23T05:34:32;13.90;;;10.47;;
63346;SDS011;49472;49.880;8.650;2023-03-23T05:36:59;12.43;;;11.50;;
63346;SDS011;49472;49.880;8.650;2023-03-23T05:39:25;11.73;;;11.03;;
63346;SDS011;49472;49.880;8.650;2023-03-23T05:41:51;12.60;;;11.80;;
63346;SDS011;49472;49.880;8.650;2023-03-23T05:44:16;13.03;;;12.33;;
63346;SDS011;49472;49.880;8.650;2023-03-23T05:46:41;12.23;;;11.53;;
63346;SDS011;49472;49.880;8.650;2023-03-23T05:49:08;12.70;;;11.90;;
63346;SDS011;49472;49.880;8.650;2023-03-23T05:51:34;13.20;;;12.40;;
63346;SDS011;49472;49.880;8.650;2023-03-23T05:54:00;13.17;;;11.70;;
63346;SDS011;49472;49.880;8.650;2023-03-23T05:56:25;12.10;;;11.50;;
63346;SDS011;49472;49.880;8.650;2023-03-23T05:58:51;12.60;;;11.90;;
63346;SDS011;49472;49.880;8.650;2023-03-23T06:01:17;11.77;;;11.07;;
63346;SDS011;49472;49.880;8.650;2023-03-23T06:03:43;13.03;;;12.33;;
63346;SDS011;49472;49.880;8.650;2023-03-23T06:06:10;13.63;;;12.63;;
63346;SDS011;49472;49.880;8.650;2023-03-23T06:08:36;13.20;;;12.40;;
63346;SDS011;49472;49.880;8.650;2023-03-23T06:11:02;12.40;;;11.50;;
63346;SDS011;49472;49.880;8.650;2023-03-23T06:13:28;12.90;;;12.10;;
63346;SDS011;49472;49.880;8.650;2023-03-23T06:15:56;13.57;;;12.57;;
63346;SDS011;49472;49.880;8.650;2023-03-23T06:18:22;13.10;;;11.90;;
63346;SDS011;49472;49.880;8.650;2023-03-23T06:20:48;13.30;;;12.10;;
63346;SDS011;49472;49.880;8.650;2023-03-23T06:23:14;12.13;;;11.47;;
63346;SDS011;49472;49.880;8.650;2023-03-23T06:25:39;12.17;;;11.47;;
63346;SDS011;49472;49.880;8.650;2023-03-23T06:28:04;12.00;;;11.30;;
63346;SDS011;49472;49.880;8.650;2023-03-23T06:30:30;12.30;;;11.40;;
63346;SDS011;49472;49.880;8.650;2023-03-23T06:32:56;11.93;;;11.13;;
63346;SDS011;49472;49.880;8.650;2023-03-23T06:35:22;12.00;;;11.30;;
63346;SDS011;49472;49.880;8.650;2023-03-23T06:37:47;11.90;;;11.20;;
63346;SDS011;49472;49.880;8.650;2023-03-23T06:40:12;11.77;;;11.00;;
63346;SDS011;49472;49.880;8.650;2023-03-23T06:42:38;12.47;;;11.43;;
63346;SDS011;49472;49.880;8.650;2023-03-23T06:45:04;11.20;;;10.50;;
63346;SDS011;49472;49.880;8.650;2023-03-23T06:47:32;12.30;;;11.27;;
63346;SDS011;49472;49.880;8.650;2023-03-23T06:49:58;11.10;;;10.50;;
63346;SDS011;49472;49.880;8.650;2023-03-23T06:52:23;12.17;;;11.37;;
63346;SDS011;49472;49.880;8.650;2023-03-23T06:54:50;12.00;;;11.30;;
63346;SDS011;49472;49.880;8.650;2023-03-23T06:57:16;12.20;;;11.30;;
63346;SDS011;49472;49.880;8.650;2023-03-23T06:59:42;12.27;;;11.37;;
63346;SDS011;49472;49.880;8.650;2023-03-23T07:02:09;12.10;;;11.20;;
63346;SDS011;49472;49.880;8.650;2023-03-23T07:04:36;11.80;;;11.00;;
63346;SDS011;49472;49.880;8.650;2023-03-23T07:07:03;12.87;;;11.97;;
63346;SDS011;49472;49.880;8.650;2023-03-23T07:09:29;11.87;;;10.83;;
63346;SDS011;49472;49.880;8.650;2023-03-23T07:11:54;11.07;;;10.27;;
63346;SDS011;49472;49.880;8.650;2023-03-23T07:14:19;13.27;;;11.20;;
63346;SDS011;49472;49.880;8.650;2023-03-23T07:16:46;11.73;;;10.97;;
63346;SDS011;49472;49.880;8.650;2023-03-23T07:19:12;11.70;;;10.70;;
63346;SDS011;49472;49.880;8.650;2023-03-23T07:21:37;12.10;;;11.40;;
63346;SDS011;49472;49.880;8.650;2023-03-23T07:24:02;11.20;;;10.50;;
63346;SDS011;49472;49.880;8.650;2023-03-23T07:26:28;11.13;;;10.37;;
63346;SDS011;49472;49.880;8.650;2023-03-23T07:28:53;11.77;;;10.97;;
63346;SDS011;49472;49.880;8.650;2023-03-23T07:31:19;12.27;;;11.57;;
63346;SDS011;49472;49.880;8.650;2023-03-23T07:33:45;11.57;;;10.87;;
63346;SDS011;49472;49.880;8.650;2023-03-23T07:36:10;11.13;;;10.40;;
63346;SDS011;49472;49.880;8.650;2023-03-23T07:38:36;12.20;;;11.03;;
63346;SDS011;49472;49.880;8.650;2023-03-23T07:41:01;12.53;;;11.63;;
63346;SDS011;49472;49.880;8.650;2023-03-23T07:43:28;11.70;;;10.90;;
63346;SDS011;49472;49.880;8.650;2023-03-23T07:45:53;12.07;;;11.37;;
63346;SDS011;49472;49.880;8.650;2023-03-23T07:48:18;11.90;;;11.10;;
63346;SDS011;49472;49.880;8.650;2023-03-23T07:50:44;12.57;;;11.60;;
63346;SDS011;49472;49.880;8.650;2023-03-23T07:53:09;11.80;;;11.10;;
63346;SDS011;49472;49.880;8.650;2023-03-23T07:55:35;11.83;;;11.13;;
63346;SDS011;49472;49.880;8.650;2023-03-23T07:58:00;12.57;;;11.50;;
63346;SDS011;49472;49.880;8.650;2023-03-23T08:00:26;12.17;;;11.40;;
63346;SDS011;49472;49.880;8.650;2023-03-23T08:02:55;12.00;;;11.10;;
63346;SDS011;49472;49.880;8.650;2023-03-23T08:05:22;12.20;;;11.30;;
63346;SDS011;49472;49.880;8.650;2023-03-23T08:07:51;11.73;;;10.93;;
63346;SDS011;49472;49.880;8.650;2023-03-23T08:10:16;12.20;;;11.20;;
63346;SDS011;49472;49.880;8.650;2023-03-23T08:12:43;11.97;;;11.13;;
63346;SDS011;49472;49.880;8.650;2023-03-23T08:15:10;12.20;;;11.37;;
63346;SDS011;49472;49.880;8.650;2023-03-23T08:17:37;11.90;;;11.30;;
63346;SDS011;49472;49.880;8.650;2023-03-23T08:20:04;12.87;;;12.07;;
63346;SDS011;49472;49.880;8.650;2023-03-23T08:22:36;12.37;;;11.40;;
63346;SDS011;49472;49.880;8.650;2023-03-23T08:25:03;11.83;;;11.03;;
63346;SDS011;49472;49.880;8.650;2023-03-23T08:27:31;11.93;;;11.13;;
63346;SDS011;49472;49.880;8.650;2023-03-23T08:29:57;12.43;;;11.60;;
63346;SDS011;49472;49.880;8.650;2023-03-23T08:32:22;11.40;;;10.70;;
63346;SDS011;49472;49.880;8.650;2023-03-23T08:34:48;11.50;;;10.73;;
63346;SDS011;49472;49.880;8.650;2023-03-23T08:37:14;12.20;;;11.20;;
63346;SDS011;49472;49.880;8.650;2023-03-23T08:39:40;12.40;;;11.50;;
63346;SDS011;49472;49.880;8.650;2023-03-23T08:42:05;12.13;;;11.20;;
63346;SDS011;49472;49.880;8.650;2023-03-23T08:44:30;11.97;;;11.27;;
63346;SDS011;49472;49.880;8.650;2023-03-23T08:46:56;11.83;;;10.90;;
63346;SDS011;49472;49.880;8.650;2023-03-23T08:49:21;11.97;;;11.07;;
63346;SDS011;49472;49.880;8.650;2023-03-23T08:51:50;11.27;;;10.70;;
63346;SDS011;49472;49.880;8.650;2023-03-23T08:54:15;12.67;;;11.00;;
63346;SDS011;49472;49.880;8.650;2023-03-23T08:56:42;12.33;;;11.60;;
63346;SDS011;49472;49.880;8.650;2023-03-23T08:59:07;11.57;;;10.97;;
63346;SDS011;49472;49.880;8.650;2023-03-23T09:01:32;12.03;;;11.20;;
63346;SDS011;49472;49.880;8.650;2023-03-23T09:03:58;11.50;;;10.90;;
63346;SDS011;49472;49.880;8.650;2023-03-23T09:06:24;12.00;;;11.23;;
63346;SDS011;49472;49.880;8.650;2023-03-23T09:08:50;11.80;;;11.10;;
63346;SDS011;49472;49.880;8.650;2023-03-23T09:11:15;11.83;;;11.00;;
63346;SDS011;49472;49.880;8.650;2023-03-23T09:13:41;12.00;;;11.30;;
63346;SDS011;49472;49.880;8.650;2023-03-23T09:16:06;13.60;;;11.27;;
63346;SDS011;49472;49.880;8.650;2023-03-23T09:18:33;11.87;;;11.27;;
63346;SDS011;49472;49.880;8.650;2023-03-23T09:20:59;11.90;;;11.13;;
63346;SDS011;49472;49.880;8.650;2023-03-23T09:23:26;11.70;;;10.90;;
63346;SDS011;49472;49.880;8.650;2023-03-23T09:25:52;11.30;;;10.70;;
63346;SDS011;49472;49.880;8.650;2023-03-23T09:28:18;12.20;;;11.30;;
63346;SDS011;49472;49.880;8.650;2023-03-23T09:30:43;12.20;;;11.50;;
63346;SDS011;49472;49.880;8.650;2023-03-23T09:33:10;11.73;;;11.03;;
63346;SDS011;49472;49.880;8.650;2023-03-23T09:35:36;12.13;;;11.40;;
63346;SDS011;49472;49.880;8.650;2023-03-23T09:38:03;11.70;;;11.10;;
63346;SDS011;49472;49.880;8.650;2023-03-23T09:46:24;12.37;;;11.67;;
63346;SDS011;49472;49.880;8.650;2023-03-23T09:49:15;12.57;;;11.77;;
63346;SDS011;49472;49.880;8.650;2023-03-23T09:52:08;11.70;;;11.10;;
63346;SDS011;49472;49.880;8.650;2023-03-23T09:54:40;12.37;;;11.57;;
63346;SDS011;49472;49.880;8.650;2023-03-23T09:57:14;12.73;;;11.73;;
63346;SDS011;49472;49.880;8.650;2023-03-23T09:59:53;11.40;;;10.80;;
63346;SDS011;49472;49.880;8.650;2023-03-23T10:08:01;12.03;;;11.33;;
63346;SDS011;49472;49.880;8.650;2023-03-23T10:10:36;12.40;;;11.60;;
63346;SDS011;49472;49.880;8.650;2023-03-23T10:13:24;12.80;;;11.90;;
63346;SDS011;49472;49.880;8.650;2023-03-23T10:15:50;12.10;;;11.30;;
63346;SDS011;49472;49.880;8.650;2023-03-23T10:18:23;11.80;;;11.10;;
63346;SDS011;49472;49.880;8.650;2023-03-23T10:21:00;12.20;;;11.40;;
63346;SDS011;49472;49.880;8.650;2023-03-23T10:28:50;12.10;;;11.30;;
63346;SDS011;49472;49.880;8.650;2023-03-23T10:31:29;13.47;;;12.50;;
63346;SDS011;49472;49.880;8.650;2023-03-23T10:33:59;12.03;;;11.10;;
63346;SDS011;49472;49.880;8.650;2023-03-23T10:36:37;11.53;;;10.83;;
63346;SDS011;49472;49.880;8.650;2023-03-23T10:39:13;11.30;;;10.53;;
63346;SDS011;49472;49.880;8.650;2023-03-23T10:41:44;12.13;;;11.37;;
63346;SDS011;49472;49.880;8.650;2023-03-23T10:44:20;11.90;;;11.10;;
63346;SDS011;49472;49.880;8.650;2023-03-23T10:49:23;11.73;;;11.03;;
63346;SDS011;49472;49.880;8.650;2023-03-23T10:52:17;11.30;;;10.60;;
63346;SDS011;49472;49.880;8.650;2023-03-23T10:54:48;11.40;;;10.70;;
63346;SDS011;49472;49.880;8.650;2023-03-23T10:57:24;11.77;;;10.90;;
63346;SDS011;49472;49.880;8.650;2023-03-23T11:00:39;11.53;;;10.73;;
63346;SDS011;49472;49.880;8.650;2023-03-23T11:02:45;11.17;;;10.47;;
63346;SDS011;49472;49.880;8.650;2023-03-23T11:05:40;11.77;;;11.07;;
63346;SDS011;49472;49.880;8.650;2023-03-23T11:08:15;11.13;;;10.53;;
63346;SDS011;49472;49.880;8.650;2023-03-23T11:10:53;11.00;;;10.27;;
63346;SDS011;49472;49.880;8.650;2023-03-23T11:13:43;11.70;;;11.10;;
63346;SDS011;49472;49.880;8.650;2023-03-23T11:16:10;11.10;;;10.60;;
63346;SDS011;49472;49.880;8.650;2023-03-23T11:18:46;11.17;;;10.67;;
63346;SDS011;49472;49.880;8.650;2023-03-23T11:21:12;10.97;;;10.47;;
63346;SDS011;49472;49.880;8.650;2023-03-23T11:23:40;11.23;;;10.60;;
63346;SDS011;49472;49.880;8.650;2023-03-23T11:26:21;11.70;;;11.10;;
63346;SDS011;49472;49.880;8.650;2023-03-23T11:28:53;10.90;;;10.40;;
63346;SDS011;49472;49.880;8.650;2023-03-23T11:34:40;11.60;;;10.90;;
63346;SDS011;49472;49.880;8.650;2023-03-23T11:37:10;12.03;;;11.43;;
63346;SDS011;49472;49.880;8.650;2023-03-23T11:39:48;11.03;;;10.53;;
63346;SDS011;49472;49.880;8.650;2023-03-23T11:42:21;12.30;;;11.60;;
63346;SDS011;49472;49.880;8.650;2023-03-23T11:44:53;12.07;;;11.37;;
63346;SDS011;49472;49.880;8.650;2023-03-23T11:47:27;12.30;;;11.40;;
63346;SDS011;49472;49.880;8.650;2023-03-23T11:50:04;12.07;;;11.47;;
63346;SDS011;49472;49.880;8.650;2023-03-23T11:52:41;12.20;;;11.50;;
63346;SDS011;49472;49.880;8.650;2023-03-23T11:55:14;12.00;;;11.40;;
63346;SDS011;49472;49.880;8.650;2023-03-23T11:57:42;12.20;;;11.50;;
63346;SDS011;49472;49.880;8.650;2023-03-23T12:00:13;13.00;;;11.87;;
63346;SDS011;49472;49.880;8.650;2023-03-23T12:16:30;11.80;;;11.20;;
63346;SDS011;49472;49.880;8.650;2023-03-23T12:19:03;11.00;;;10.47;;
63346;SDS011;49472;49.880;8.650;2023-03-23T12:21:41;11.30;;;10.73;;
63346;SDS011;49472;49.880;8.650;2023-03-23T12:24:21;11.27;;;10.73;;
63346;SDS011;49472;49.880;8.650;2023-03-23T12:30:04;10.80;;;10.30;;
63346;SDS011;49472;49.880;8.650;2023-03-23T12:33:01;11.10;;;10.60;;
63346;SDS011;49472;49.880;8.650;2023-03-23T12:46:24;11.23;;;10.63;;
63346;SDS011;49472;49.880;8.650;2023-03-23T12:51:35;10.90;;;10.30;;
63346;SDS011;49472;49.880;8.650;2023-03-23T12:54:14;11.00;;;10.40;;
63346;SDS011;49472;49.880;8.650;2023-03-23T12:59:43;11.80;;;11.20;;
63346;SDS011;49472;49.880;8.650;2023-03-23T13:04:56;11.87;;;11.17;;
63346;SDS011;49472;49.880;8.650;2023-03-23T13:07:30;12.27;;;11.50;;
63346;SDS011;49472;49.880;8.650;2023-03-23T13:12:31;12.07;;;11.40;;
63346;SDS011;49472;49.880;8.650;2023-03-23T13:17:53;11.20;;;10.60;;
63346;SDS011;49472;49.880;8.650;2023-03-23T13:28:27;11.93;;;11.33;;
63346;SDS011;49472;49.880;8.650;2023-03-23T13:30:58;11.20;;;10.60;;
63346;SDS011;49472;49.880;8.650;2023-03-23T13:33:25;12.23;;;11.53;;
63346;SDS011;49472;49.880;8.650;2023-03-23T13:35:50;11.80;;;11.20;;
63346;SDS011;49472;49.880;8.650;2023-03-23T13:40:45;11.50;;;10.90;;
63346;SDS011;49472;49.880;8.650;2023-03-23T13:43:11;12.50;;;11.30;;
63346;SDS011;49472;49.880;8.650;2023-03-23T13:45:43;11.80;;;11.23;;
63346;SDS011;49472;49.880;8.650;2023-03-23T13:50:50;11.53;;;10.93;;
63346;SDS011;49472;49.880;8.650;2023-03-23T13:53:44;11.47;;;10.67;;
63346;SDS011;49472;49.880;8.650;2023-03-23T13:59:12;11.30;;;10.80;;
63346;SDS011;49472;49.880;8.650;2023-03-23T14:01:41;11.50;;;11.00;;
63346;SDS011;49472;49.880;8.650;2023-03-23T14:04:10;12.03;;;11.33;;
63346;SDS011;49472;49.880;8.650;2023-03-23T14:06:48;12.00;;;11.40;;
63346;SDS011;49472;49.880;8.650;2023-03-23T14:09:16;11.50;;;10.80;;
63346;SDS011;49472;49.880;8.650;2023-03-23T14:11:58;11.83;;;11.23;;
63346;SDS011;49472;49.880;8.650;2023-03-23T14:14:33;11.87;;;11.30;;
63346;SDS011;49472;49.880;8.650;2023-03-23T14:19:51;12.83;;;11.30;;
63346;SDS011;49472;49.880;8.650;2023-03-23T14:22:41;11.40;;;10.80;;
63346;SDS011;49472;49.880;8.650;2023-03-23T14:27:42;11.23;;;10.63;;
63346;SDS011;49472;49.880;8.650;2023-03-23T14:30:18;11.47;;;10.90;;
63346;SDS011;49472;49.880;8.650;2023-03-23T14:32:45;11.20;;;10.70;;
63346;SDS011;49472;49.880;8.650;2023-03-23T14:35:14;12.03;;;10.87;;
63346;SDS011;49472;49.880;8.650;2023-03-23T14:37:48;10.90;;;10.40;;
63346;SDS011;49472;49.880;8.650;2023-03-23T14:40:15;11.37;;;10.77;;
63346;SDS011;49472;49.880;8.650;2023-03-23T14:42:42;11.90;;;11.10;;
63346;SDS011;49472;49.880;8.650;2023-03-23T14:45:10;11.47;;;10.90;;
63346;SDS011;49472;49.880;8.650;2023-03-23T14:47:40;12.03;;;11.33;;
63346;SDS011;49472;49.880;8.650;2023-03-23T14:50:29;11.50;;;10.90;;
63346;SDS011;49472;49.880;8.650;2023-03-23T14:55:41;11.47;;;10.97;;
63346;SDS011;49472;49.880;8.650;2023-03-23T14:58:11;11.27;;;10.77;;
63346;SDS011;49472;49.880;8.650;2023-03-23T15:00:39;11.20;;;10.60;;
63346;SDS011;49472;49.880;8.650;2023-03-23T15:03:11;10.83;;;10.33;;
63346;SDS011;49472;49.880;8.650;2023-03-23T15:05:44;11.13;;;10.63;;
63346;SDS011;49472;49.880;8.650;2023-03-23T15:08:20;12.40;;;11.60;;
63346;SDS011;49472;49.880;8.650;2023-03-23T15:13:59;11.80;;;10.83;;
63346;SDS011;49472;49.880;8.650;2023-03-23T15:16:32;11.10;;;10.50;;
63346;SDS011;49472;49.880;8.650;2023-03-23T15:21:36;11.60;;;11.00;;
63346;SDS011;49472;49.880;8.650;2023-03-23T15:24:19;12.63;;;11.93;;
63346;SDS011;49472;49.880;8.650;2023-03-23T15:27:11;12.63;;;11.83;;
63346;SDS011;49472;49.880;8.650;2023-03-23T15:29:48;12.60;;;11.70;;
63346;SDS011;49472;49.880;8.650;2023-03-23T15:34:53;12.23;;;11.20;;
63346;SDS011;49472;49.880;8.650;2023-03-23T15:37:24;12.30;;;11.50;;
63346;SDS011;49472;49.880;8.650;2023-03-23T15:39:53;12.40;;;11.57;;
63346;SDS011;49472;49.880;8.650;2023-03-23T15:42:25;11.60;;;10.60;;
63346;SDS011;49472;49.880;8.650;2023-03-23T15:44:56;11.37;;;10.67;;
63346;SDS011;49472;49.880;8.650;2023-03-23T15:47:22;11.50;;;10.90;;
63346;SDS011;49472;49.880;8.650;2023-03-23T15:49:58;11.10;;;10.47;;
63346;SDS011;49472;49.880;8.650;2023-03-23T15:52:26;10.70;;;10.10;;
63346;SDS011;49472;49.880;8.650;2023-03-23T15:54:52;10.70;;;10.20;;
63346;SDS011;49472;49.880;8.650;2023-03-23T15:57:17;10.83;;;10.27;;
63346;SDS011;49472;49.880;8.650;2023-03-23T15:59:42;11.23;;;10.63;;
63346;SDS011;49472;49.880;8.650;2023-03-23T16:02:12;11.13;;;10.53;;
63346;SDS011;49472;49.880;8.650;2023-03-23T16:04:43;11.40;;;10.80;;
63346;SDS011;49472;49.880;8.650;2023-03-23T16:07:09;11.87;;;11.00;;
63346;SDS011;49472;49.880;8.650;2023-03-23T16:09:37;11.33;;;10.60;;
63346;SDS011;49472;49.880;8.650;2023-03-23T16:12:03;11.30;;;10.67;;
63346;SDS011;49472;49.880;8.650;2023-03-23T16:14:29;10.43;;;9.93;;
63346;SDS011;49472;49.880;8.650;2023-03-23T16:16:54;10.60;;;10.00;;
63346;SDS011;49472;49.880;8.650;2023-03-23T16:19:19;11.90;;;11.07;;
63346;SDS011;49472;49.880;8.650;2023-03-23T16:21:48;12.03;;;11.13;;
63346;SDS011;49472;49.880;8.650;2023-03-23T16:24:13;11.53;;;10.93;;
63346;SDS011;49472;49.880;8.650;2023-03-23T16:26:38;11.30;;;10.50;;
63346;SDS011;49472;49.880;8.650;2023-03-23T16:29:09;11.70;;;11.00;;
63346;SDS011;49472;49.880;8.650;2023-03-23T16:31:36;12.53;;;11.40;;
63346;SDS011;49472;49.880;8.650;2023-03-23T16:34:01;14.23;;;13.13;;
63346;SDS011;49472;49.880;8.650;2023-03-23T16:36:27;11.70;;;11.00;;